createdAt,value
2018-09-27T00:01:59.931Z,3.00
2018-09-27T00:04:33.008Z,3.00
2018-09-27T00:07:04.912Z,3.00
2018-09-27T00:09:37.259Z,3.00
2018-09-27T00:12:09.101Z,2.90
2018-09-27T00:14:41.111Z,3.00
2018-09-27T00:17:12.966Z,3.00
2018-09-27T00:19:45.051Z,3.00
2018-09-27T00:22:18.668Z,3.00
2018-09-27T00:24:50.600Z,3.00
2018-09-27T00:27:22.513Z,3.00
2018-09-27T00:29:54.774Z,3.10
2018-09-27T00:32:27.836Z,3.00
2018-09-27T00:35:00.035Z,3.10
2018-09-27T00:37:32.078Z,3.10
2018-09-27T00:40:04.307Z,3.10
2018-09-27T00:42:36.535Z,3.10
2018-09-27T00:45:08.674Z,3.10
2018-09-27T00:47:40.425Z,3.10
2018-09-27T00:50:12.337Z,3.10
2018-09-27T00:52:44.746Z,3.10
2018-09-27T00:55:16.513Z,3.10
2018-09-27T00:57:48.400Z,2.90
2018-09-27T01:00:20.640Z,2.80
2018-09-27T01:02:52.737Z,2.80
2018-09-27T01:05:25.055Z,2.70
2018-09-27T01:07:56.810Z,2.60
2018-09-27T01:10:29.094Z,2.60
2018-09-27T01:13:00.928Z,2.60
2018-09-27T01:15:33.232Z,2.50
2018-09-27T01:18:05.887Z,2.40
2018-09-27T01:20:37.797Z,2.40
2018-09-27T01:23:09.700Z,2.40
2018-09-27T01:25:42.149Z,2.30
2018-09-27T01:28:14.800Z,2.30
2018-09-27T01:30:46.671Z,2.30
2018-09-27T01:33:18.342Z,2.10
2018-09-27T01:35:50.750Z,2.10
2018-09-27T01:38:22.570Z,2.30
2018-09-27T01:40:54.818Z,2.30
2018-09-27T01:43:27.645Z,2.20
2018-09-27T01:45:59.600Z,2.30
2018-09-27T01:48:31.654Z,2.20
2018-09-27T01:51:03.681Z,2.20
2018-09-27T01:53:35.727Z,2.20
2018-09-27T01:56:07.965Z,2.20
2018-09-27T01:58:39.833Z,2.20
2018-09-27T02:01:11.748Z,2.10
2018-09-27T02:03:43.781Z,2.10
2018-09-27T02:06:16.768Z,2.10
2018-09-27T02:08:48.558Z,2.00
2018-09-27T02:11:20.684Z,2.10
2018-09-27T02:13:52.603Z,2.10
2018-09-27T02:16:24.437Z,2.10
2018-09-27T02:18:56.399Z,2.00
2018-09-27T02:21:28.701Z,2.00
2018-09-27T02:24:00.801Z,2.00
2018-09-27T02:26:32.607Z,1.90
2018-09-27T02:29:04.690Z,1.90
2018-09-27T02:31:36.776Z,1.80
2018-09-27T02:34:08.750Z,1.80
2018-09-27T02:36:41.300Z,1.80
2018-09-27T02:39:13.421Z,1.70
2018-09-27T02:41:45.612Z,1.80
2018-09-27T02:44:18.100Z,1.70
2018-09-27T02:46:49.984Z,1.80
2018-09-27T02:49:21.713Z,1.80
2018-09-27T02:51:53.961Z,1.80
2018-09-27T02:54:25.528Z,1.70
2018-09-27T02:56:57.232Z,1.60
2018-09-27T02:59:29.115Z,1.50
2018-09-27T03:02:01.538Z,1.50
2018-09-27T03:04:33.339Z,1.50
2018-09-27T03:07:05.560Z,1.50
2018-09-27T03:09:37.686Z,1.40
2018-09-27T03:12:10.300Z,1.50
2018-09-27T03:14:42.343Z,1.50
2018-09-27T03:17:14.216Z,1.50
2018-09-27T03:19:45.878Z,1.60
2018-09-27T03:22:17.961Z,1.60
2018-09-27T03:24:50.885Z,1.50
2018-09-27T03:27:23.008Z,1.50
2018-09-27T03:29:55.003Z,1.50
2018-09-27T03:32:27.152Z,1.50
2018-09-27T03:34:59.211Z,1.40
2018-09-27T03:37:31.149Z,1.40
2018-09-27T03:40:03.567Z,1.30
2018-09-27T03:42:35.669Z,1.30
2018-09-27T03:45:08.135Z,1.30
2018-09-27T03:47:40.446Z,1.30
2018-09-27T03:50:12.570Z,1.30
2018-09-27T03:52:44.730Z,1.20
2018-09-27T03:55:17.303Z,1.10
2018-09-27T03:57:49.666Z,1.10
2018-09-27T04:00:22.043Z,1.10
2018-09-27T04:02:54.077Z,1.20
2018-09-27T04:05:26.033Z,1.10
2018-09-27T04:07:57.997Z,1.10
2018-09-27T04:10:30.036Z,1.10
2018-09-27T04:13:02.554Z,1.10
2018-09-27T04:15:34.787Z,1.10
2018-09-27T04:18:07.642Z,1.00
2018-09-27T04:20:55.625Z,1.00
2018-09-27T04:23:27.759Z,1.10
2018-09-27T04:26:00.189Z,1.10
2018-09-27T04:28:33.188Z,1.10
2018-09-27T04:31:05.033Z,1.00
2018-09-27T04:33:37.041Z,1.00
2018-09-27T04:36:09.062Z,1.00
2018-09-27T04:38:41.310Z,1.10
2018-09-27T04:41:13.453Z,1.10
2018-09-27T04:43:45.726Z,1.00
2018-09-27T04:46:18.080Z,1.00
2018-09-27T04:48:50.039Z,1.10
2018-09-27T04:51:22.200Z,1.20
2018-09-27T04:53:54.321Z,1.40
2018-09-27T04:56:26.879Z,1.50
2018-09-27T04:58:59.132Z,1.60
2018-09-27T05:01:31.405Z,1.70
2018-09-27T05:04:04.497Z,1.80
2018-09-27T05:06:36.995Z,1.90
2018-09-27T05:09:10.491Z,2.00
2018-09-27T05:11:44.083Z,2.20
2018-09-27T05:14:15.778Z,2.30
2018-09-27T05:16:47.946Z,2.40
2018-09-27T05:19:20.577Z,2.60
2018-09-27T05:21:52.893Z,2.70
2018-09-27T05:24:24.957Z,2.90
2018-09-27T05:26:57.235Z,3.10
2018-09-27T05:29:29.313Z,3.30
2018-09-27T05:32:01.059Z,3.50
2018-09-27T05:34:33.102Z,3.80
2018-09-27T05:37:05.371Z,4.10
2018-09-27T05:39:37.539Z,4.30
2018-09-27T05:42:09.590Z,4.60
2018-09-27T05:44:41.783Z,4.90
2018-09-27T05:47:13.754Z,5.20
2018-09-27T05:49:45.593Z,5.50
2018-09-27T05:52:17.814Z,5.90
2018-09-27T05:54:50.157Z,6.20
2018-09-27T05:57:25.214Z,6.50
2018-09-27T05:59:57.669Z,6.70
2018-09-27T06:02:30.071Z,6.80
2018-09-27T06:05:02.347Z,7.10
2018-09-27T06:07:34.107Z,7.30
2018-09-27T06:10:06.601Z,7.60
2018-09-27T06:12:38.810Z,7.70
2018-09-27T06:15:10.908Z,7.90
2018-09-27T06:17:43.399Z,8.20
2018-09-27T06:20:16.031Z,8.40
2018-09-27T06:22:48.582Z,8.70
2018-09-27T06:25:20.371Z,8.90
2018-09-27T06:27:52.663Z,9.10
2018-09-27T06:30:24.654Z,9.30
2018-09-27T06:32:57.943Z,9.50
2018-09-27T06:35:30.098Z,9.70
2018-09-27T06:38:02.368Z,9.90
2018-09-27T06:40:33.997Z,10.10
2018-09-27T06:43:05.964Z,10.20
2018-09-27T06:45:38.410Z,10.20
2018-09-27T06:48:10.881Z,10.30
2018-09-27T06:50:42.915Z,10.40
2018-09-27T06:53:15.415Z,10.50
2018-09-27T06:55:47.650Z,10.80
2018-09-27T06:58:19.869Z,10.90
2018-09-27T07:00:52.139Z,11.20
2018-09-27T07:03:24.886Z,11.50
2018-09-27T07:05:57.029Z,11.60
2018-09-27T07:08:28.996Z,11.50
2018-09-27T07:11:01.115Z,11.50
2018-09-27T07:13:32.934Z,11.50
2018-09-27T07:16:05.093Z,11.50
2018-09-27T07:18:46.158Z,11.50
2018-09-27T07:21:18.537Z,11.70
2018-09-27T07:23:50.794Z,11.90
2018-09-27T07:26:23.252Z,12.00
2018-09-27T07:28:55.510Z,12.20
2018-09-27T07:31:33.975Z,12.40
2018-09-27T07:34:05.981Z,12.40
2018-09-27T07:36:37.997Z,12.50
2018-09-27T07:39:12.490Z,12.70
2018-09-27T07:41:45.378Z,12.70
2018-09-27T07:44:17.900Z,12.50
2018-09-27T07:46:50.388Z,12.40
2018-09-27T07:49:22.887Z,12.20
2018-09-27T07:51:54.853Z,12.00
2018-09-27T07:54:27.164Z,12.10
2018-09-27T07:56:59.594Z,12.10
2018-09-27T07:59:32.718Z,12.30
2018-09-27T08:02:05.468Z,12.40
2018-09-27T08:04:37.924Z,12.60
2018-09-27T08:07:10.776Z,12.70
2018-09-27T08:09:43.328Z,12.90
2018-09-27T08:12:15.603Z,13.00
2018-09-27T08:14:48.093Z,13.10
2018-09-27T08:17:20.740Z,13.30
2018-09-27T08:19:53.641Z,13.20
2018-09-27T08:22:25.977Z,13.10
2018-09-27T08:24:58.129Z,13.10
2018-09-27T08:27:30.773Z,13.00
2018-09-27T08:30:03.028Z,13.10
2018-09-27T08:32:35.145Z,13.50
2018-09-27T08:35:07.414Z,13.70
2018-09-27T08:37:39.391Z,13.60
2018-09-27T08:40:11.364Z,13.60
2018-09-27T08:42:43.556Z,13.60
2018-09-27T08:45:16.212Z,13.50
2018-09-27T08:47:48.008Z,13.50
2018-09-27T08:50:20.452Z,13.60
2018-09-27T08:52:52.906Z,13.50
2018-09-27T08:55:25.297Z,13.50
2018-09-27T08:57:57.574Z,13.50
2018-09-27T09:00:30.196Z,13.80
2018-09-27T09:03:02.339Z,13.80
2018-09-27T09:05:34.403Z,13.80
2018-09-27T09:08:06.718Z,13.60
2018-09-27T09:10:39.817Z,13.60
2018-09-27T09:13:14.300Z,13.60
2018-09-27T09:15:46.353Z,13.70
2018-09-27T09:18:18.366Z,14.00
2018-09-27T09:20:51.143Z,14.20
2018-09-27T09:23:23.581Z,14.30
2018-09-27T09:25:55.892Z,14.30
2018-09-27T09:28:27.596Z,14.30
2018-09-27T09:30:59.604Z,14.30
2018-09-27T09:33:31.358Z,14.60
2018-09-27T09:36:04.100Z,14.90
2018-09-27T09:38:36.275Z,15.20
2018-09-27T09:41:08.410Z,15.30
2018-09-27T09:43:40.057Z,15.30
2018-09-27T09:46:12.326Z,15.20
2018-09-27T09:48:44.435Z,15.10
2018-09-27T09:51:17.302Z,15.00
2018-09-27T09:53:49.564Z,15.00
2018-09-27T09:56:22.039Z,15.10
2018-09-27T09:58:54.273Z,15.20
2018-09-27T10:01:25.790Z,15.30
2018-09-27T10:03:57.794Z,15.40
2018-09-27T10:06:30.033Z,15.40
2018-09-27T10:09:02.278Z,15.50
2018-09-27T10:11:35.241Z,15.60
2018-09-27T10:14:07.654Z,15.80
2018-09-27T10:16:40.821Z,15.80
2018-09-27T10:19:12.907Z,15.80
2018-09-27T10:21:45.067Z,15.80
2018-09-27T10:24:17.499Z,15.90
2018-09-27T10:26:49.747Z,15.60
2018-09-27T10:29:21.927Z,15.40
2018-09-27T10:31:54.851Z,15.30
2018-09-27T10:34:27.112Z,15.30
2018-09-27T10:36:59.390Z,15.50
2018-09-27T10:39:32.831Z,15.80
2018-09-27T10:42:04.753Z,16.00
2018-09-27T10:44:36.903Z,16.10
2018-09-27T10:47:09.307Z,16.10
2018-09-27T10:49:42.285Z,15.80
2018-09-27T10:52:14.179Z,15.70
2018-09-27T10:54:46.168Z,15.80
2018-09-27T10:57:19.428Z,15.90
2018-09-27T10:59:51.672Z,16.00
2018-09-27T11:02:23.833Z,16.00
2018-09-27T11:04:56.269Z,16.00
2018-09-27T11:07:38.234Z,16.10
2018-09-27T11:10:14.875Z,16.40
2018-09-27T11:12:59.370Z,16.70
2018-09-27T11:15:41.300Z,16.80
2018-09-27T11:18:24.708Z,16.80
2018-09-27T11:21:05.208Z,16.70
2018-09-27T11:23:37.560Z,16.50
2018-09-27T11:26:13.670Z,16.50
2018-09-27T11:28:55.988Z,16.70
2018-09-27T11:31:34.518Z,16.90
2018-09-27T11:34:09.588Z,16.90
2018-09-27T11:36:41.852Z,16.80
2018-09-27T11:39:14.437Z,16.70
2018-09-27T11:41:46.887Z,16.60
2018-09-27T11:44:18.992Z,16.60
2018-09-27T11:46:51.390Z,16.60
2018-09-27T11:49:22.968Z,16.50
2018-09-27T11:51:55.245Z,16.30
2018-09-27T11:54:28.205Z,16.30
2018-09-27T11:57:00.414Z,16.40
2018-09-27T11:59:32.871Z,16.40
2018-09-27T12:02:05.332Z,16.50
2018-09-27T12:04:37.516Z,16.70
2018-09-27T12:07:09.224Z,16.70
2018-09-27T12:09:41.436Z,16.60
2018-09-27T12:12:13.885Z,16.60
2018-09-27T12:14:46.773Z,16.60
2018-09-27T12:17:20.147Z,16.60
2018-09-27T12:19:52.574Z,16.60
2018-09-27T12:22:24.893Z,16.80
2018-09-27T12:24:57.326Z,17.00
2018-09-27T12:27:29.877Z,17.10
2018-09-27T12:30:02.301Z,17.10
2018-09-27T12:32:39.892Z,17.20
2018-09-27T12:35:22.759Z,17.40
2018-09-27T12:37:54.951Z,17.30
2018-09-27T12:40:27.286Z,17.30
2018-09-27T12:43:01.943Z,17.30
2018-09-27T12:45:44.061Z,17.40
2018-09-27T12:48:16.726Z,17.20
2018-09-27T12:50:49.043Z,17.30
2018-09-27T12:53:21.549Z,17.30
2018-09-27T12:55:58.151Z,17.20
2018-09-27T12:58:46.396Z,17.20
2018-09-27T13:01:20.384Z,17.10
2018-09-27T13:03:52.568Z,17.20
2018-09-27T13:06:24.781Z,17.30
2018-09-27T13:08:57.414Z,17.30
2018-09-27T13:11:29.531Z,17.30
2018-09-27T13:14:01.347Z,17.10
2018-09-27T13:16:33.188Z,17.10
2018-09-27T13:19:05.211Z,17.20
2018-09-27T13:21:37.702Z,17.30
2018-09-27T13:24:09.734Z,17.50
2018-09-27T13:26:41.898Z,17.50
2018-09-27T13:29:13.983Z,17.40
2018-09-27T13:31:46.954Z,17.30
2018-09-27T13:34:18.765Z,17.30
2018-09-27T13:36:50.673Z,17.30
2018-09-27T13:39:22.797Z,17.30
2018-09-27T13:41:54.830Z,17.30
2018-09-27T13:44:27.233Z,17.20
2018-09-27T13:46:59.532Z,17.20
2018-09-27T13:49:31.816Z,17.20
2018-09-27T13:52:03.672Z,17.10
2018-09-27T13:54:36.015Z,17.10
2018-09-27T13:57:08.372Z,17.10
2018-09-27T13:59:41.107Z,17.00
2018-09-27T14:02:13.565Z,17.00
2018-09-27T14:04:45.913Z,17.10
2018-09-27T14:07:17.968Z,17.00
2018-09-27T14:09:49.700Z,17.00
2018-09-27T14:12:21.745Z,16.90
2018-09-27T14:14:53.961Z,16.90
2018-09-27T14:17:26.060Z,16.80
2018-09-27T14:19:58.454Z,16.80
2018-09-27T14:22:30.478Z,16.80
2018-09-27T14:25:02.729Z,16.80
2018-09-27T14:27:36.845Z,16.70
2018-09-27T14:30:08.929Z,16.60
2018-09-27T14:32:41.556Z,16.60
2018-09-27T14:35:13.867Z,16.50
2018-09-27T14:37:46.327Z,16.50
2018-09-27T14:40:18.457Z,16.40
2018-09-27T14:42:50.878Z,16.30
2018-09-27T14:45:23.923Z,16.40
2018-09-27T14:47:57.279Z,16.30
2018-09-27T14:50:29.779Z,16.30
2018-09-27T14:53:01.848Z,16.20
2018-09-27T14:55:33.918Z,16.10
2018-09-27T14:58:06.230Z,16.00
2018-09-27T15:00:38.176Z,15.90
2018-09-27T15:08:47.973Z,15.70
2018-09-27T15:11:20.171Z,15.60
2018-09-27T15:13:52.703Z,15.50
2018-09-27T15:16:25.072Z,15.50
2018-09-27T15:18:56.906Z,15.50
2018-09-27T15:21:29.892Z,15.50
2018-09-27T15:24:03.105Z,15.40
2018-09-27T15:26:35.254Z,15.30
2018-09-27T15:29:07.376Z,15.20
2018-09-27T15:31:39.895Z,15.10
2018-09-27T15:34:12.411Z,15.00
2018-09-27T15:36:44.516Z,15.00
2018-09-27T15:39:16.834Z,14.80
2018-09-27T15:41:49.700Z,14.80
2018-09-27T15:44:22.180Z,14.70
2018-09-27T15:46:54.814Z,14.60
2018-09-27T15:49:27.554Z,14.60
2018-09-27T15:51:59.898Z,14.40
2018-09-27T15:54:31.970Z,14.30
2018-09-27T15:57:05.303Z,14.20
2018-09-27T15:59:37.854Z,14.20
2018-09-27T16:02:10.756Z,14.00
2018-09-27T16:04:43.044Z,13.90
2018-09-27T16:07:15.134Z,13.80
2018-09-27T16:09:47.647Z,13.70
2018-09-27T16:12:19.643Z,13.60
2018-09-27T16:14:52.330Z,13.50
2018-09-27T16:17:24.846Z,13.40
2018-09-27T16:19:57.215Z,13.30
2018-09-27T16:22:29.651Z,13.20
2018-09-27T16:25:02.182Z,13.00
2018-09-27T16:27:35.153Z,12.90
2018-09-27T16:30:08.293Z,12.80
2018-09-27T16:32:41.173Z,12.70
2018-09-27T16:35:14.239Z,12.50
2018-09-27T16:37:47.385Z,12.40
2018-09-27T16:40:20.593Z,12.20
2018-09-27T16:42:53.101Z,12.00
2018-09-27T16:45:25.962Z,11.90
2018-09-27T16:47:57.954Z,11.70
2018-09-27T16:50:31.177Z,11.60
2018-09-27T16:53:04.930Z,11.60
2018-09-27T16:55:37.829Z,11.70
2018-09-27T16:58:10.601Z,11.50
2018-09-27T17:00:43.926Z,11.30
2018-09-27T17:03:16.605Z,11.20
2018-09-27T17:05:49.263Z,11.00
2018-09-27T17:08:21.422Z,10.80
2018-09-27T17:10:54.029Z,10.70
2018-09-27T17:13:27.106Z,10.60
2018-09-27T17:15:59.810Z,10.50
2018-09-27T17:18:32.543Z,10.40
2018-09-27T17:21:04.966Z,10.30
2018-09-27T17:23:38.157Z,10.30
2018-09-27T17:26:10.513Z,10.20
2018-09-27T17:28:43.260Z,10.10
2018-09-27T17:31:15.832Z,10.00
2018-09-27T17:33:48.967Z,10.00
2018-09-27T17:36:21.700Z,9.90
2018-09-27T17:38:54.453Z,9.70
2018-09-27T17:41:27.079Z,9.70
2018-09-27T17:43:59.964Z,9.60
2018-09-27T17:46:32.367Z,9.40
2018-09-27T17:49:05.840Z,9.20
2018-09-27T17:51:38.122Z,9.10
2018-09-27T17:54:10.977Z,9.10
2018-09-27T17:56:43.486Z,9.00
2018-09-27T17:59:16.322Z,8.90
2018-09-27T18:01:48.425Z,8.80
2018-09-27T18:04:21.489Z,8.60
2018-09-27T18:06:53.970Z,8.50
2018-09-27T18:09:27.290Z,8.40
2018-09-27T18:12:00.808Z,8.30
2018-09-27T18:14:33.365Z,8.20
2018-09-27T18:17:06.740Z,8.10
2018-09-27T18:19:39.928Z,7.90
2018-09-27T18:22:12.625Z,7.60
2018-09-27T18:24:44.702Z,7.40
2018-09-27T18:27:18.142Z,7.20
2018-09-27T18:29:50.697Z,7.00
2018-09-27T18:32:23.863Z,6.90
2018-09-27T18:34:56.494Z,6.90
2018-09-27T18:37:29.043Z,6.90
2018-09-27T18:40:01.350Z,6.90
2018-09-27T18:42:33.823Z,6.90
2018-09-27T18:45:06.634Z,6.90
2018-09-27T18:47:38.815Z,6.90
2018-09-27T18:50:12.296Z,6.90
2018-09-27T18:52:44.706Z,6.90
2018-09-27T18:55:16.890Z,6.90
2018-09-27T18:57:48.660Z,6.80
2018-09-27T19:00:20.487Z,6.80
2018-09-27T19:02:52.785Z,6.70
2018-09-27T19:05:26.279Z,6.60
2018-09-27T19:07:58.874Z,6.60
2018-09-27T19:10:32.037Z,6.60
2018-09-27T19:13:04.415Z,6.50
2018-09-27T19:15:36.610Z,6.50
2018-09-27T19:18:10.472Z,6.50
2018-09-27T19:20:42.765Z,6.30
2018-09-27T19:23:15.434Z,6.20
2018-09-27T19:25:48.077Z,6.10
2018-09-27T19:28:20.882Z,6.00
2018-09-27T19:30:54.542Z,6.00
2018-09-27T19:33:26.885Z,5.90
2018-09-27T19:36:00.076Z,5.90
2018-09-27T19:38:32.545Z,6.00
2018-09-27T19:41:05.267Z,5.90
2018-09-27T19:43:37.580Z,5.80
2018-09-27T19:46:09.622Z,5.80
2018-09-27T19:48:42.005Z,5.70
2018-09-27T19:51:15.201Z,5.60
2018-09-27T19:53:47.395Z,5.60
2018-09-27T19:56:20.129Z,5.60
2018-09-27T19:58:52.776Z,5.50
2018-09-27T20:01:25.503Z,5.50
2018-09-27T20:03:57.881Z,5.40
2018-09-27T20:06:30.488Z,5.30
2018-09-27T20:09:02.628Z,5.30
2018-09-27T20:11:34.836Z,5.40
2018-09-27T20:14:07.247Z,5.40
2018-09-27T20:16:40.426Z,5.30
2018-09-27T20:19:12.295Z,5.30
2018-09-27T20:21:44.146Z,5.40
2018-09-27T20:24:16.261Z,5.40
2018-09-27T20:26:48.689Z,5.40
2018-09-27T20:29:20.996Z,5.40
2018-09-27T20:31:53.610Z,5.30
2018-09-27T20:34:26.215Z,5.30
2018-09-27T20:36:58.846Z,5.30
2018-09-27T20:39:30.975Z,5.40
2018-09-27T20:42:04.740Z,5.40
2018-09-27T20:44:36.930Z,5.30
2018-09-27T20:47:09.304Z,5.40
2018-09-27T20:49:41.361Z,5.30
2018-09-27T20:52:13.756Z,5.30
2018-09-27T20:54:45.837Z,5.30
2018-09-27T20:57:17.894Z,5.50
2018-09-27T20:59:50.463Z,5.40
2018-09-27T21:02:23.016Z,5.30
2018-09-27T21:04:55.499Z,5.20
2018-09-27T21:07:27.405Z,5.20
2018-09-27T21:09:59.607Z,5.20
2018-09-27T21:12:31.657Z,5.20
2018-09-27T21:15:03.992Z,5.10
2018-09-27T21:17:36.183Z,5.10
2018-09-27T21:20:08.427Z,5.10
2018-09-27T21:22:40.424Z,5.10
2018-09-27T21:25:12.590Z,5.10
2018-09-27T21:27:44.531Z,5.20
2018-09-27T21:30:16.520Z,5.10
2018-09-27T21:32:48.186Z,5.10
2018-09-27T21:35:19.967Z,5.00
2018-09-27T21:37:52.136Z,5.00
2018-09-27T21:40:24.017Z,5.10
2018-09-27T21:42:56.569Z,5.20
2018-09-27T21:45:28.646Z,5.10
2018-09-27T21:48:00.657Z,5.00
2018-09-27T21:50:33.073Z,5.00
2018-09-27T21:53:05.173Z,5.10
2018-09-27T21:55:36.906Z,5.10
2018-09-27T21:58:09.234Z,5.00
2018-09-27T22:00:41.130Z,5.00
2018-09-27T22:03:13.250Z,4.90
2018-09-27T22:05:45.796Z,4.90
2018-09-27T22:08:18.455Z,4.90
2018-09-27T22:10:50.627Z,4.90
2018-09-27T22:13:23.378Z,4.90
2018-09-27T22:15:55.276Z,4.80
2018-09-27T22:18:27.308Z,4.80
2018-09-27T22:20:59.660Z,4.70
2018-09-27T22:23:31.789Z,4.70
2018-09-27T22:26:03.685Z,4.60
2018-09-27T22:28:35.807Z,4.60
2018-09-27T22:31:08.353Z,4.70
2018-09-27T22:33:40.591Z,4.70
2018-09-27T22:36:12.383Z,4.70
2018-09-27T22:38:44.434Z,4.70
2018-09-27T22:41:17.228Z,4.70
2018-09-27T22:43:49.384Z,4.80
2018-09-27T22:46:21.223Z,4.80
2018-09-27T22:48:53.041Z,4.80
2018-09-27T22:51:25.156Z,4.70
2018-09-27T22:53:57.275Z,4.70
2018-09-27T22:56:29.102Z,4.70
2018-09-27T22:59:01.276Z,4.70
2018-09-27T23:01:33.362Z,4.70
2018-09-27T23:04:05.292Z,4.70
2018-09-27T23:06:37.941Z,4.60
2018-09-27T23:09:10.546Z,4.50
2018-09-27T23:11:43.265Z,4.50
2018-09-27T23:14:15.241Z,4.40
2018-09-27T23:16:48.103Z,4.40
2018-09-27T23:19:21.614Z,4.30
2018-09-27T23:21:54.137Z,4.20
2018-09-27T23:24:26.002Z,4.10
2018-09-27T23:26:58.299Z,4.10
2018-09-27T23:29:30.353Z,4.00
2018-09-27T23:32:03.442Z,4.00
2018-09-27T23:34:35.092Z,4.00
2018-09-27T23:37:07.692Z,3.90
2018-09-27T23:39:39.650Z,3.90
2018-09-27T23:42:11.602Z,4.00
2018-09-27T23:44:43.506Z,3.90
2018-09-27T23:47:15.282Z,3.90
2018-09-27T23:49:47.341Z,3.90
2018-09-27T23:52:19.629Z,4.00
2018-09-27T23:54:52.687Z,3.90
2018-09-27T23:57:24.837Z,4.00
2018-09-27T23:59:57.514Z,3.90
